Seiwamaru — JD3227 — position and weather

sailwx.info

Track history (hours):
 
Tides and Currents Weather Stations Pressure Air Temp Water Temp Dewpoint Dewpoint Depression Visibility Wind Speed Wind Dir Waves Ship Positions

Seiwamaru

Last reported at 2018-Feb-24 15:31 UTC. Time now 2018-Feb-24 15:55 UTC.
Position N 35°22' E 139°54'.

Length 38 m; draft 4.1 m.

Type: Tug. MMSI: 432816000.

Date/timePositionNaut miles runAvg speedWind from/ knotsBaromVisibWave heightAir tempDewpointWater temp
2018-Feb-24 15:31N 35°22' E 139°54'0 0.0
2018-Feb-24 14:59N 35°22' E 139°54'0 0.0
2018-Feb-24 14:30N 35°22' E 139°54'0 0.0
2018-Feb-24 14:00N 35°22' E 139°54'0 0.0
2018-Feb-24 13:30N 35°22' E 139°54'0 0.0
2018-Feb-24 12:58N 35°22' E 139°54'0 0.0
2018-Feb-24 12:30N 35°22' E 139°54'0 0.0
2018-Feb-24 12:01N 35°22' E 139°54'0 0.0
2018-Feb-24 11:30N 35°22' E 139°54'0 0.0
2018-Feb-24 11:00N 35°22' E 139°54'0 0.0
2018-Feb-24 10:29N 35°22' E 139°54'0 0.0
2018-Feb-24 10:00N 35°22' E 139°54'0 0.0
2018-Feb-24 09:29N 35°22' E 139°54'0 0.0
2018-Feb-24 09:00N 35°22' E 139°54'0 0.0
2018-Feb-24 08:30N 35°22' E 139°54'0 0.0
2018-Feb-24 08:01N 35°22' E 139°54'0 0.0
2018-Feb-24 07:29N 35°22' E 139°54'1 1.6
2018-Feb-24 07:00N 35°22' E 139°53'0 0.1
2018-Feb-24 06:31N 35°22' E 139°53'0 0.0
2018-Feb-24 06:00N 35°22' E 139°53'0 0.1
2018-Feb-24 05:30N 35°22' E 139°53'0 0.1
2018-Feb-24 05:00N 35°22' E 139°53'0 0.0
2018-Feb-24 04:31N 35°22' E 139°53'0 0.1
2018-Feb-24 04:00N 35°22' E 139°53'0 0.0
2018-Feb-24 03:30N 35°22' E 139°53'2 3.7
2018-Feb-24 02:59N 35°23' E 139°51'510.1
2018-Feb-24 02:30N 35°23' E 139°45'3 6.5
2018-Feb-24 02:01N 35°24' E 139°41'3 5.5
2018-Feb-24 01:31N 35°25' E 139°44'3 6.4
2018-Feb-24 01:00N 35°27' E 139°47'3 6.3
2018-Feb-24 00:30N 35°29' E 139°50'6 6.5
2018-Feb-23 23:31N 35°33' E 139°56'3 6.5
2018-Feb-23 23:00N 35°36' E 139°58'3 6.2
2018-Feb-23 22:27N 35°39' E 139°59'1 2.6
2018-Feb-23 21:57N 35°40' E 139°59'0 0.1
2018-Feb-23 21:30N 35°40' E 139°59'2 3.8
2018-Feb-23 20:54N 35°38' E 139°59'510.8
2018-Feb-23 20:24N 35°33' E 139°57'511.8
2018-Feb-23 20:00N 35°30' E 139°53'611.1
2018-Feb-23 19:30N 35°24' E 139°51'3 6.6
2018-Feb-23 18:59N 35°22' E 139°54'0 0.0
2018-Feb-23 18:29N 35°22' E 139°54'0 0.0
2018-Feb-23 17:53N 35°22' E 139°54'0 0.0
2018-Feb-23 17:19N 35°22' E 139°54'0 0.0
2018-Feb-23 17:00N 35°22' E 139°54'0 0.0
2018-Feb-23 16:23N 35°22' E 139°54'0 0.0
2018-Feb-23 16:00N 35°22' E 139°54'0 0.0
2018-Feb-23 15:30N 35°22' E 139°54'0 0.0
2018-Feb-23 15:00N 35°22' E 139°54'0 0.0
2018-Feb-23 14:28N 35°22' E 139°54'0 0.0
2018-Feb-23 13:56N 35°22' E 139°54'0 0.0
2018-Feb-23 13:29N 35°22' E 139°54'0 0.0
2018-Feb-23 13:00N 35°22' E 139°54'0 0.0
2018-Feb-23 12:30N 35°22' E 139°54'0 0.0
2018-Feb-23 11:54N 35°22' E 139°54'0 0.0
2018-Feb-23 11:26N 35°22' E 139°54'0 0.0
2018-Feb-23 10:57N 35°22' E 139°54'0 0.0
2018-Feb-23 10:30N 35°22' E 139°54'0 0.0
2018-Feb-23 10:00N 35°22' E 139°54'0 0.0
2018-Feb-23 09:30N 35°22' E 139°54'0 0.2
2018-Feb-23 09:01N 35°22' E 139°54'0 0.2
2018-Feb-23 08:29N 35°22' E 139°54'0 0.0
2018-Feb-23 08:00N 35°22' E 139°54'0 0.0
2018-Feb-23 07:29N 35°22' E 139°54'0 0.0
2018-Feb-23 06:58N 35°22' E 139°54'0 0.0
2018-Feb-23 06:29N 35°22' E 139°54'0 0.0
2018-Feb-23 05:59N 35°22' E 139°54'0 0.0
2018-Feb-23 05:30N 35°22' E 139°54'1 1.9
2018-Feb-23 05:00N 35°22' E 139°53'1 1.0
2018-Feb-23 04:30N 35°22' E 139°53'1 0.6
2018-Feb-23 03:40N 35°22' E 139°54'0 0.0
2018-Feb-23 03:31N 35°22' E 139°54'0 0.0
2018-Feb-23 03:00N 35°22' E 139°54'0 0.0
2018-Feb-23 02:30N 35°22' E 139°54'0 0.0
2018-Feb-23 02:00N 35°22' E 139°54'0 0.0
2018-Feb-23 01:28N 35°22' E 139°54'0 1.0
2018-Feb-23 01:00N 35°22' E 139°53'0 0.4
2018-Feb-23 00:30N 35°22' E 139°53'2 3.6
2018-Feb-23 00:00N 35°23' E 139°51'2 3.8
2018-Feb-22 23:30N 35°24' E 139°50'3 7.0
2018-Feb-22 23:01N 35°22' E 139°53'1 1.2
2018-Feb-22 22:30N 35°22' E 139°53'0 1.0
2018-Feb-22 22:00N 35°22' E 139°54'0 0.0
2018-Feb-22 21:26N 35°22' E 139°54'0 0.0
2018-Feb-22 21:01N 35°22' E 139°54'0 0.0
2018-Feb-22 20:30N 35°22' E 139°54'0 0.0
2018-Feb-22 20:00N 35°22' E 139°54'0 0.0
2018-Feb-22 19:30N 35°22' E 139°54'0 0.0
2018-Feb-22 18:59N 35°22' E 139°54'0 0.0
2018-Feb-22 18:30N 35°22' E 139°54'0 0.0
2018-Feb-22 18:00N 35°22' E 139°54'0 0.0
2018-Feb-22 17:29N 35°22' E 139°54'0 0.0
2018-Feb-22 17:00N 35°22' E 139°54'0 0.0
2018-Feb-22 16:27N 35°22' E 139°54'0 0.0
2018-Feb-22 16:00N 35°22' E 139°54'0 0.0
2018-Feb-22 15:30N 35°22' E 139°54'0 0.0
2018-Feb-22 15:00N 35°22' E 139°54'0 0.0
2018-Feb-22 14:28N 35°22' E 139°54'0 0.0
2018-Feb-22 14:00N 35°22' E 139°54'0 0.0
2018-Feb-22 13:30N 35°22' E 139°54'0 0.0
2018-Feb-22 13:00N 35°22' E 139°54'0 0.0
2018-Feb-22 12:31N 35°22' E 139°54'0 0.0
2018-Feb-22 11:59N 35°22' E 139°54'0 0.0
2018-Feb-22 11:30N 35°22' E 139°54'0 0.0
2018-Feb-22 10:59N 35°22' E 139°54'0 0.0
2018-Feb-22 10:30N 35°22' E 139°54'0 0.0
2018-Feb-22 10:00N 35°22' E 139°54'0 0.0
2018-Feb-22 09:29N 35°22' E 139°54'0 0.0
2018-Feb-22 09:00N 35°22' E 139°54'0 0.0
2018-Feb-22 08:30N 35°22' E 139°54'0 0.0
2018-Feb-22 08:00N 35°22' E 139°54'0 0.0
2018-Feb-22 07:29N 35°22' E 139°54'1 1.7
2018-Feb-22 07:00N 35°22' E 139°53'0 0.0
2018-Feb-22 06:30N 35°22' E 139°53'0 0.0
2018-Feb-22 06:00N 35°22' E 139°53'0 0.0
2018-Feb-22 05:31N 35°22' E 139°53'0 0.1
2018-Feb-22 05:01N 35°22' E 139°53'0 0.1
2018-Feb-22 04:30N 35°22' E 139°53'1 1.7
2018-Feb-22 04:01N 35°22' E 139°54'0 0.0
2018-Feb-22 03:30N 35°22' E 139°54'0 0.0
2018-Feb-22 03:00N 35°22' E 139°54'0 0.0
2018-Feb-22 02:30N 35°22' E 139°54'0 0.0
2018-Feb-22 02:00N 35°22' E 139°54'0 0.0
2018-Feb-22 01:30N 35°22' E 139°54'0 0.0
2018-Feb-22 01:00N 35°22' E 139°54'0 0.0
2018-Feb-22 00:29N 35°22' E 139°54'0 0.0
2018-Feb-22 00:01N 35°22' E 139°54'0 0.0
2018-Feb-21 23:30N 35°22' E 139°54'0 0.0
2018-Feb-21 23:00N 35°22' E 139°54'0 0.0
2018-Feb-21 22:30N 35°22' E 139°54'0 0.0
2018-Feb-21 22:00N 35°22' E 139°54'0 0.0
2018-Feb-21 21:31N 35°22' E 139°54'0 0.0
2018-Feb-21 21:00N 35°22' E 139°54'0 0.0
2018-Feb-21 20:30N 35°22' E 139°54'0 0.0
2018-Feb-21 20:00N 35°22' E 139°54'0 0.0
2018-Feb-21 19:30N 35°22' E 139°54'0 0.0
2018-Feb-21 18:58N 35°22' E 139°54'0 0.0
2018-Feb-21 18:31N 35°22' E 139°54'0 0.0
2018-Feb-21 18:00N 35°22' E 139°54'0 0.0
2018-Feb-21 17:31N 35°22' E 139°54'0 0.0
2018-Feb-21 17:00N 35°22' E 139°54'0 0.0
2018-Feb-21 16:29N 35°22' E 139°54'0 0.0
2018-Feb-21 16:00N 35°22' E 139°54'0 0.0
2018-Feb-21 15:30N 35°22' E 139°54'0 0.0
2018-Feb-21 15:00N 35°22' E 139°54'0 0.0
2018-Feb-21 14:29N 35°22' E 139°54'0 0.0
2018-Feb-21 14:01N 35°22' E 139°54'0 0.0
2018-Feb-21 13:31N 35°22' E 139°54'0 0.0
2018-Feb-21 13:00N 35°22' E 139°54'0 0.0
2018-Feb-21 12:29N 35°22' E 139°54'0 0.0
2018-Feb-21 12:01N 35°22' E 139°54'0 0.0
2018-Feb-21 11:30N 35°22' E 139°54'0 0.0
2018-Feb-21 11:00N 35°22' E 139°54'0 0.0
2018-Feb-21 10:30N 35°22' E 139°54'0 0.0
2018-Feb-21 10:00N 35°22' E 139°54'0 0.0
2018-Feb-21 09:30N 35°22' E 139°54'0 0.0
2018-Feb-21 09:00N 35°22' E 139°54'0 0.0
2018-Feb-21 08:31N 35°22' E 139°54'0 0.0
2018-Feb-21 08:01N 35°22' E 139°54'0 0.0
2018-Feb-21 07:30N 35°22' E 139°54'0 0.0
2018-Feb-21 07:00N 35°22' E 139°54'0 0.0
2018-Feb-21 06:30N 35°22' E 139°54'0 0.0
2018-Feb-21 06:00N 35°22' E 139°54'0 0.0
2018-Feb-21 05:30N 35°22' E 139°54'0 0.0
2018-Feb-21 04:57N 35°22' E 139°54'3 6.3
2018-Feb-21 04:30N 35°23' E 139°50'2 4.5
2018-Feb-21 04:00N 35°21' E 139°49'0 0.1
2018-Feb-21 03:30N 35°21' E 139°49'0 0.2
2018-Feb-21 03:00N 35°20' E 139°49'0 0.5
2018-Feb-21 02:30N 35°21' E 139°49'0 0.5
2018-Feb-21 02:00N 35°21' E 139°49'0 0.8
2018-Feb-21 01:30N 35°21' E 139°49'0 0.3
2018-Feb-21 01:00N 35°21' E 139°49'0 0.1
2018-Feb-21 00:30N 35°21' E 139°49'0 0.5
2018-Feb-21 00:00N 35°21' E 139°49'0 0.4
2018-Feb-20 23:30N 35°21' E 139°49'0 0.1
2018-Feb-20 23:01N 35°21' E 139°49'0 0.1
2018-Feb-20 22:30N 35°21' E 139°49'0 0.6
2018-Feb-20 22:01N 35°21' E 139°49'0 0.5
2018-Feb-20 21:30N 35°21' E 139°49'0 0.1
2018-Feb-20 21:01N 35°21' E 139°49'0 0.2
2018-Feb-20 20:30N 35°21' E 139°49'0 0.6
2018-Feb-20 20:00N 35°21' E 139°49'0 1.0
2018-Feb-20 19:30N 35°20' E 139°49'0 0.0
2018-Feb-20 19:00N 35°20' E 139°49'0 0.0
2018-Feb-20 18:30N 35°20' E 139°49'0 0.0
2018-Feb-20 18:01N 35°20' E 139°49'0 0.0
2018-Feb-20 17:30N 35°20' E 139°49'0 0.0
2018-Feb-20 17:01N 35°20' E 139°49'0 0.0
2018-Feb-20 16:31N 35°20' E 139°49'0 0.0
2018-Feb-20 16:00N 35°20' E 139°49'0 0.0
2018-Feb-20 15:30N 35°20' E 139°49'0 0.0
2018-Feb-20 15:00N 35°20' E 139°49'0 0.0
2018-Feb-20 14:30N 35°20' E 139°49'0 0.0
2018-Feb-20 14:00N 35°20' E 139°49'0 0.0
2018-Feb-20 13:30N 35°20' E 139°49'0 0.6
2018-Feb-20 13:01N 35°21' E 139°49'0 0.1
2018-Feb-20 12:30N 35°21' E 139°49'0 0.3
2018-Feb-20 12:00N 35°21' E 139°49'0 0.2
2018-Feb-20 11:30N 35°21' E 139°49'0 0.1
2018-Feb-20 11:00N 35°21' E 139°49'0 0.1
2018-Feb-20 10:30N 35°21' E 139°49'0 0.4
2018-Feb-20 10:01N 35°21' E 139°49'0 0.4
2018-Feb-20 09:30N 35°21' E 139°49'0 0.2
2018-Feb-20 09:00N 35°21' E 139°49'0 0.1
2018-Feb-20 08:31N 35°21' E 139°49'0 0.3
2018-Feb-20 08:00N 35°21' E 139°49'0 0.4
2018-Feb-20 07:30N 35°21' E 139°49'0 0.2
2018-Feb-20 07:01N 35°21' E 139°49'0 0.1
2018-Feb-20 06:31N 35°21' E 139°49'0 0.2
2018-Feb-20 06:00N 35°21' E 139°49'0 0.2
2018-Feb-20 05:30N 35°21' E 139°49'0 0.1
2018-Feb-20 05:01N 35°21' E 139°49'0 0.1
2018-Feb-20 04:30N 35°21' E 139°49'0 0.3
2018-Feb-20 04:00N 35°21' E 139°49'0 0.2
2018-Feb-20 03:31N 35°21' E 139°49'0 0.1
2018-Feb-20 03:00N 35°21' E 139°49'0 0.2
2018-Feb-20 02:30N 35°21' E 139°49'0 0.1
2018-Feb-20 02:00N 35°21' E 139°49'0 0.4
2018-Feb-20 01:30N 35°21' E 139°49'0 0.2
2018-Feb-20 01:00N 35°21' E 139°49'0 0.3
2018-Feb-20 00:30N 35°21' E 139°49'0 0.3
2018-Feb-20 00:00N 35°21' E 139°49'0 0.3
2018-Feb-19 23:30N 35°21' E 139°49'0 0.6
2018-Feb-19 23:01N 35°20' E 139°49'1 2.2
2018-Feb-19 22:31N 35°22' E 139°49'2 3.4
2018-Feb-19 22:00N 35°23' E 139°50'3 6.0
2018-Feb-19 21:30N 35°22' E 139°54'0 0.0
2018-Feb-19 20:59N 35°22' E 139°54'0 0.0
2018-Feb-19 20:29N 35°22' E 139°54'0 0.0
2018-Feb-19 20:01N 35°22' E 139°54'0 0.0
2018-Feb-19 19:30N 35°22' E 139°54'0 0.0
2018-Feb-19 19:01N 35°22' E 139°54'0 0.0
2018-Feb-19 18:30N 35°22' E 139°54'0 0.0
2018-Feb-19 18:00N 35°22' E 139°54'0 0.0
2018-Feb-19 17:30N 35°22' E 139°54'0 0.0
2018-Feb-19 17:01N 35°22' E 139°54'0 0.0
2018-Feb-19 16:31N 35°22' E 139°54'0 0.0
2018-Feb-19 16:00N 35°22' E 139°54'0 0.0
2018-Feb-19 15:30N 35°22' E 139°54'0 0.0
2018-Feb-19 15:00N 35°22' E 139°54'0 0.0
2018-Feb-19 14:30N 35°22' E 139°54'0 0.0
2018-Feb-19 14:00N 35°22' E 139°54'0 0.0
2018-Feb-19 13:31N 35°22' E 139°54'0 0.0
2018-Feb-19 13:00N 35°22' E 139°54'0 0.0
2018-Feb-19 12:30N 35°22' E 139°54'0 0.0
2018-Feb-19 12:00N 35°22' E 139°54'0 0.0
2018-Feb-19 11:31N 35°22' E 139°54'0 0.0
2018-Feb-19 11:00N 35°22' E 139°54'0 0.0
2018-Feb-19 10:31N 35°22' E 139°54'0 0.0
2018-Feb-19 10:01N 35°22' E 139°54'0 0.0
2018-Feb-19 09:31N 35°22' E 139°54'0 0.0
2018-Feb-19 09:00N 35°22' E 139°54'0 0.0
2018-Feb-19 08:31N 35°22' E 139°54'0 0.0
2018-Feb-19 08:00N 35°22' E 139°54'0 0.0
2018-Feb-19 07:30N 35°22' E 139°54'0 0.0
2018-Feb-19 06:57N 35°22' E 139°54'0 0.0
2018-Feb-19 06:30N 35°22' E 139°54'2 3.3
2018-Feb-19 06:00N 35°22' E 139°52'0 0.2
2018-Feb-19 05:31N 35°22' E 139°52'0 0.4
2018-Feb-19 05:00N 35°22' E 139°52'2 4.4
2018-Feb-19 04:29N 35°23' E 139°49'3 5.3
2018-Feb-19 04:00N 35°26' E 139°50'1 1.5
2018-Feb-19 03:30N 35°26' E 139°50'4 8.0
2018-Feb-19 03:00N 35°22' E 139°49'2 3.3
2018-Feb-19 02:30N 35°21' E 139°49'0 0.2
2018-Feb-19 02:01N 35°21' E 139°49'2 3.1
2018-Feb-19 01:30N 35°22' E 139°50'2 3.6
2018-Feb-19 01:01N 35°22' E 139°52'0 0.3
2018-Feb-19 00:30N 35°22' E 139°52'0 1.0
2018-Feb-19 00:00N 35°22' E 139°53'0 0.0
2018-Feb-18 23:30N 35°22' E 139°53'1 1.3
2018-Feb-18 23:00N 35°22' E 139°53'1 2.0
2018-Feb-18 22:30N 35°22' E 139°52'1 2.9
2018-Feb-18 22:00N 35°22' E 139°51'0 0.2
2018-Feb-18 21:30N 35°22' E 139°51'2 4.8
2018-Feb-18 21:00N 35°22' E 139°54'0 0.1
2018-Feb-18 20:31N 35°22' E 139°54'0 0.0
2018-Feb-18 20:00N 35°22' E 139°54'0 0.0
2018-Feb-18 19:30N 35°22' E 139°54'0 0.0
2018-Feb-18 18:58N 35°22' E 139°54'0 0.0
2018-Feb-18 18:30N 35°22' E 139°54'0 0.0
2018-Feb-18 18:00N 35°22' E 139°54'0 0.0
2018-Feb-18 17:30N 35°22' E 139°54'0 0.0
2018-Feb-18 17:00N 35°22' E 139°54'0 0.0
2018-Feb-18 16:28N 35°22' E 139°54'0 0.0
2018-Feb-18 16:00N 35°22' E 139°54'0 0.0
2018-Feb-18 15:30N 35°22' E 139°54'0 0.0
2018-Feb-18 15:00N 35°22' E 139°54'0 0.0
2018-Feb-18 14:30N 35°22' E 139°54'0 0.0
2018-Feb-18 14:01N 35°22' E 139°54'0 0.0
2018-Feb-18 13:30N 35°22' E 139°54'0 0.0
2018-Feb-18 13:00N 35°22' E 139°54'0 0.0
2018-Feb-18 12:28N 35°22' E 139°54'0 0.0
2018-Feb-18 11:53N 35°22' E 139°54'0 0.0
2018-Feb-18 11:30N 35°22' E 139°54'0 0.0
2018-Feb-18 11:00N 35°22' E 139°54'0 0.0
2018-Feb-18 10:30N 35°22' E 139°54'0 0.0
2018-Feb-18 09:58N 35°22' E 139°54'0 0.0
2018-Feb-18 09:24N 35°22' E 139°54'0 0.0
2018-Feb-18 08:59N 35°22' E 139°54'0 0.0
2018-Feb-18 08:30N 35°22' E 139°54'0 0.0
2018-Feb-18 07:59N 35°22' E 139°54'0 0.0
2018-Feb-18 07:31N 35°22' E 139°54'0 0.0
2018-Feb-18 06:58N 35°22' E 139°54'0 0.0
2018-Feb-18 06:31N 35°22' E 139°54'0 0.0
2018-Feb-18 05:58N 35°22' E 139°54'1 3.0
2018-Feb-18 05:30N 35°22' E 139°52'3 5.5
2018-Feb-18 05:01N 35°21' E 139°49'0 0.0
2018-Feb-18 04:30N 35°21' E 139°49'0 0.0
2018-Feb-18 04:01N 35°21' E 139°49'0 0.9
2018-Feb-18 03:30N 35°21' E 139°49'2 4.0
2018-Feb-18 03:00N 35°23' E 139°48'0 0.1
2018-Feb-18 02:30N 35°23' E 139°48'2 4.1
2018-Feb-18 02:00N 35°23' E 139°51'2 4.1
2018-Feb-18 01:24N 35°22' E 139°54'0 0.0
2018-Feb-18 00:58N 35°22' E 139°54'0 0.0
2018-Feb-18 00:30N 35°22' E 139°54'0 0.0
2018-Feb-17 23:59N 35°22' E 139°54'0 0.0
2018-Feb-17 23:30N 35°22' E 139°54'0 0.0
2018-Feb-17 23:00N 35°22' E 139°54'0 0.0
2018-Feb-17 22:30N 35°22' E 139°54'0 0.0
2018-Feb-17 22:01N 35°22' E 139°54'0 0.0
2018-Feb-17 21:30N 35°22' E 139°54'0 0.0
2018-Feb-17 21:00N 35°22' E 139°54'0 0.0
2018-Feb-17 20:30N 35°22' E 139°54'0 0.0
2018-Feb-17 19:59N 35°22' E 139°54'0 0.0
2018-Feb-17 19:30N 35°22' E 139°54'0 0.0
2018-Feb-17 19:00N 35°22' E 139°54'0 0.0
2018-Feb-17 18:31N 35°22' E 139°54'0 0.0
2018-Feb-17 18:01N 35°22' E 139°54'0 0.0
2018-Feb-17 17:30N 35°22' E 139°54'0 0.0
2018-Feb-17 17:00N 35°22' E 139°54'0 0.0
2018-Feb-17 16:30N 35°22' E 139°54'0 0.0
2018-Feb-17 16:00N 35°22' E 139°54'0 0.0
2018-Feb-17 15:31N 35°22' E 139°54'0 0.0
2018-Feb-17 14:59N 35°22' E 139°54'0 0.0
2018-Feb-17 14:30N 35°22' E 139°54'0 0.0
2018-Feb-17 14:01N 35°22' E 139°54'0 0.0
2018-Feb-17 13:28N 35°22' E 139°54'0 0.0
2018-Feb-17 13:00N 35°22' E 139°54'0 0.0
2018-Feb-17 12:28N 35°22' E 139°54'0 0.0
2018-Feb-17 12:00N 35°22' E 139°54'0 0.0
2018-Feb-17 11:30N 35°22' E 139°54'0 0.0
2018-Feb-17 11:00N 35°22' E 139°54'0 0.0
2018-Feb-17 10:31N 35°22' E 139°54'0 0.0
2018-Feb-17 10:00N 35°22' E 139°54'0 0.0
2018-Feb-17 09:30N 35°22' E 139°54'0 0.0
2018-Feb-17 08:56N 35°22' E 139°54'0 0.0
2018-Feb-17 08:30N 35°22' E 139°54'0 0.0
2018-Feb-17 08:01N 35°22' E 139°54'0 0.0
2018-Feb-17 07:30N 35°22' E 139°54'0 0.0
2018-Feb-17 06:59N 35°22' E 139°54'0 0.0
2018-Feb-17 06:30N 35°22' E 139°54'0 0.0
2018-Feb-17 06:00N 35°22' E 139°54'3 6.4
2018-Feb-17 05:30N 35°22' E 139°50'2 3.6
2018-Feb-17 05:01N 35°21' E 139°49'0 0.2
2018-Feb-17 04:30N 35°21' E 139°49'3 5.6
2018-Feb-17 04:00N 35°22' E 139°52'1 2.8
2018-Feb-17 03:30N 35°22' E 139°54'0 0.0
2018-Feb-17 02:59N 35°22' E 139°54'0 0.0
2018-Feb-17 02:30N 35°22' E 139°54'0 0.0
2018-Feb-17 02:00N 35°22' E 139°54'0 0.0
2018-Feb-17 01:30N 35°22' E 139°54'0 0.0
2018-Feb-17 01:00N 35°22' E 139°54'0 0.0
2018-Feb-17 00:27N 35°22' E 139°54'0 0.0
2018-Feb-17 00:01N 35°22' E 139°54'0 0.0
2018-Feb-16 23:30N 35°22' E 139°54'0 0.0
2018-Feb-16 23:00N 35°22' E 139°54'0 0.0
2018-Feb-16 22:28N 35°22' E 139°54'1 3.0
2018-Feb-16 22:01N 35°22' E 139°52'0 0.1
2018-Feb-16 21:30N 35°22' E 139°52'1 1.5
2018-Feb-16 21:01N 35°22' E 139°51'2 4.5
2018-Feb-16 20:30N 35°24' E 139°49'2 3.9
2018-Feb-16 20:00N 35°26' E 139°49'2 5.0
2018-Feb-16 19:30N 35°23' E 139°51'2 3.5
2018-Feb-16 19:00N 35°22' E 139°52'0 0.3
2018-Feb-16 18:30N 35°22' E 139°52'1 2.8
2018-Feb-16 18:01N 35°22' E 139°54'0 0.0
2018-Feb-16 17:30N 35°22' E 139°54'0 0.0
2018-Feb-16 17:00N 35°22' E 139°54'0 0.0
2018-Feb-16 16:30N 35°22' E 139°54'0 0.0
2018-Feb-16 16:00N 35°22' E 139°54'0 0.0
2018-Feb-16 15:30N 35°22' E 139°54'0 0.0
2018-Feb-16 15:00N 35°22' E 139°54'0 0.0
2018-Feb-16 14:31N 35°22' E 139°54'0 0.0
2018-Feb-16 14:00N 35°22' E 139°54'0 0.0
2018-Feb-16 13:30N 35°22' E 139°54'0 0.0
2018-Feb-16 13:01N 35°22' E 139°54'0 0.0
2018-Feb-16 12:30N 35°22' E 139°54'0 0.0
2018-Feb-16 12:01N 35°22' E 139°54'0 0.0
2018-Feb-16 11:30N 35°22' E 139°54'0 0.0
2018-Feb-16 10:59N 35°22' E 139°54'0 0.0
2018-Feb-16 10:30N 35°22' E 139°54'0 0.0
2018-Feb-16 10:00N 35°22' E 139°54'0 0.0
2018-Feb-16 09:30N 35°22' E 139°54'0 0.0
2018-Feb-16 09:00N 35°22' E 139°54'0 0.0
2018-Feb-16 08:30N 35°22' E 139°54'3 5.5
2018-Feb-16 08:00N 35°23' E 139°51'1 2.8
2018-Feb-16 07:30N 35°21' E 139°51'2 3.0
2018-Feb-16 07:00N 35°22' E 139°50'0 0.5
2018-Feb-16 06:30N 35°22' E 139°50'1 1.8
2018-Feb-16 06:00N 35°22' E 139°49'1 1.8
2018-Feb-16 05:30N 35°21' E 139°49'0 0.0
2018-Feb-16 04:59N 35°21' E 139°49'0 0.2
2018-Feb-16 04:31N 35°21' E 139°49'1 2.1
2018-Feb-16 04:01N 35°22' E 139°49'2 4.1
2018-Feb-16 03:31N 35°23' E 139°47'1 2.6
2018-Feb-16 03:01N 35°22' E 139°46'4 7.7
2018-Feb-16 02:31N 35°23' E 139°50'3 5.5
2018-Feb-16 02:00N 35°22' E 139°54'0 0.0
2018-Feb-16 01:29N 35°22' E 139°54'0 0.0
2018-Feb-16 01:00N 35°22' E 139°54'0 0.0
2018-Feb-16 00:29N 35°22' E 139°54'0 0.0
2018-Feb-16 00:00N 35°22' E 139°54'0 0.0
2018-Feb-15 23:30N 35°22' E 139°54'0 0.0
2018-Feb-15 23:00N 35°22' E 139°54'0 0.0
2018-Feb-15 22:25N 35°22' E 139°54'1 1.9
2018-Feb-15 22:00N 35°22' E 139°53'1 1.0
2018-Feb-15 21:30N 35°22' E 139°53'3 6.1
2018-Feb-15 21:01N 35°23' E 139°50'1 1.8
2018-Feb-15 20:31N 35°24' E 139°50'3 7.0
2018-Feb-15 20:01N 35°22' E 139°54'0 0.4
2018-Feb-15 19:30N 35°22' E 139°54'0 0.0
2018-Feb-15 19:00N 35°22' E 139°54'0 0.0
2018-Feb-15 18:30N 35°22' E 139°54'0 0.0
2018-Feb-15 18:00N 35°22' E 139°54'0 0.0
2018-Feb-15 17:31N 35°22' E 139°54'0 0.0
2018-Feb-15 17:00N 35°22' E 139°54'0 0.0
2018-Feb-15 16:30N 35°22' E 139°54'0 0.0
2018-Feb-15 16:00N 35°22' E 139°54'0 0.0
2018-Feb-15 15:30N 35°22' E 139°54'0 0.0
2018-Feb-15 14:57N 35°22' E 139°54'0 0.0
2018-Feb-15 14:30N 35°22' E 139°54'0 0.0
2018-Feb-15 13:58N 35°22' E 139°54'0 0.0
2018-Feb-15 13:30N 35°22' E 139°54'0 0.0
2018-Feb-15 13:00N 35°22' E 139°54'0 0.0
2018-Feb-15 12:31N 35°22' E 139°54'0 0.0
2018-Feb-15 12:00N 35°22' E 139°54'0 0.0
2018-Feb-15 11:29N 35°22' E 139°54'0 0.0
2018-Feb-15 11:01N 35°22' E 139°54'0 0.0
2018-Feb-15 10:30N 35°22' E 139°54'0 0.0
2018-Feb-15 10:00N 35°22' E 139°54'0 0.0
2018-Feb-15 09:31N 35°22' E 139°54'0 0.0
2018-Feb-15 09:00N 35°22' E 139°54'0 0.0
2018-Feb-15 08:30N 35°22' E 139°54'0 0.0
2018-Feb-15 08:00N 35°22' E 139°54'0 0.0
2018-Feb-15 07:30N 35°22' E 139°54'1 1.7
2018-Feb-15 07:01N 35°22' E 139°53'2 3.6
2018-Feb-15 06:31N 35°22' E 139°51'0 0.9
2018-Feb-15 06:00N 35°22' E 139°50'3 5.4
2018-Feb-15 05:31N 35°22' E 139°47'2 4.4
2018-Feb-15 05:00N 35°23' E 139°50'2 3.1
2018-Feb-15 04:30N 35°22' E 139°52'1 2.1
2018-Feb-15 04:00N 35°22' E 139°51'1 2.6
2018-Feb-15 03:30N 35°22' E 139°53'0 0.0
2018-Feb-15 03:00N 35°22' E 139°53'0 0.1
2018-Feb-15 02:30N 35°22' E 139°53'0 0.1
2018-Feb-15 02:00N 35°22' E 139°53'0 0.1
2018-Feb-15 01:30N 35°22' E 139°53'0 0.9
2018-Feb-15 01:00N 35°22' E 139°52'0 0.2
2018-Feb-15 00:30N 35°22' E 139°52'1 1.8
2018-Feb-15 00:00N 35°22' E 139°53'0 0.8
2018-Feb-14 23:30N 35°22' E 139°54'0 0.0
2018-Feb-14 22:58N 35°22' E 139°54'0 0.0
2018-Feb-14 22:28N 35°22' E 139°54'0 0.0
2018-Feb-14 22:00N 35°22' E 139°54'0 0.0
2018-Feb-14 21:30N 35°22' E 139°54'0 0.0
2018-Feb-14 21:00N 35°22' E 139°54'0 0.0
2018-Feb-14 20:27N 35°22' E 139°54'0 0.0
2018-Feb-14 20:01N 35°22' E 139°54'0 0.0
2018-Feb-14 19:30N 35°22' E 139°54'0 0.0
2018-Feb-14 19:00N 35°22' E 139°54'0 0.0
2018-Feb-14 18:30N 35°22' E 139°54'0 0.0
2018-Feb-14 18:00N 35°22' E 139°54'0 0.0
2018-Feb-14 17:31N 35°22' E 139°54'0 0.0
2018-Feb-14 17:00N 35°22' E 139°54'0 0.0
2018-Feb-14 16:28N 35°22' E 139°54'0 0.0
2018-Feb-14 16:00N 35°22' E 139°54'  
Track history (hours):
 
Tides and Currents Weather Stations Pressure Air Temp Water Temp Dewpoint Dewpoint Depression Visibility Wind Speed Wind Dir Waves Ship Positions

Seiwamaru

Last reported at 2018-Feb-24 15:31 UTC. Time now 2018-Feb-24 15:55 UTC.
Position N 35°22' E 139°54'.

Length 38 m; draft 4.1 m.

Type: Tug. MMSI: 432816000.

Date/timePositionNaut miles runAvg speedWind from/ knotsBaromVisibWave heightAir tempDewpointWater temp
2018-Feb-24 15:31N 35°22' E 139°54'0 0.0
2018-Feb-24 14:59N 35°22' E 139°54'0 0.0
2018-Feb-24 14:30N 35°22' E 139°54'0 0.0
2018-Feb-24 14:00N 35°22' E 139°54'0 0.0
2018-Feb-24 13:30N 35°22' E 139°54'0 0.0
2018-Feb-24 12:58N 35°22' E 139°54'0 0.0
2018-Feb-24 12:30N 35°22' E 139°54'0 0.0
2018-Feb-24 12:01N 35°22' E 139°54'0 0.0
2018-Feb-24 11:30N 35°22' E 139°54'0 0.0
2018-Feb-24 11:00N 35°22' E 139°54'0 0.0
2018-Feb-24 10:29N 35°22' E 139°54'0 0.0
2018-Feb-24 10:00N 35°22' E 139°54'0 0.0
2018-Feb-24 09:29N 35°22' E 139°54'0 0.0
2018-Feb-24 09:00N 35°22' E 139°54'0 0.0
2018-Feb-24 08:30N 35°22' E 139°54'0 0.0
2018-Feb-24 08:01N 35°22' E 139°54'0 0.0
2018-Feb-24 07:29N 35°22' E 139°54'1 1.6
2018-Feb-24 07:00N 35°22' E 139°53'0 0.1
2018-Feb-24 06:31N 35°22' E 139°53'0 0.0
2018-Feb-24 06:00N 35°22' E 139°53'0 0.1
2018-Feb-24 05:30N 35°22' E 139°53'0 0.1
2018-Feb-24 05:00N 35°22' E 139°53'0 0.0
2018-Feb-24 04:31N 35°22' E 139°53'0 0.1
2018-Feb-24 04:00N 35°22' E 139°53'0 0.0
2018-Feb-24 03:30N 35°22' E 139°53'2 3.7
2018-Feb-24 02:59N 35°23' E 139°51'510.1
2018-Feb-24 02:30N 35°23' E 139°45'3 6.5
2018-Feb-24 02:01N 35°24' E 139°41'3 5.5
2018-Feb-24 01:31N 35°25' E 139°44'3 6.4
2018-Feb-24 01:00N 35°27' E 139°47'3 6.3
2018-Feb-24 00:30N 35°29' E 139°50'6 6.5
2018-Feb-23 23:31N 35°33' E 139°56'3 6.5
2018-Feb-23 23:00N 35°36' E 139°58'3 6.2
2018-Feb-23 22:27N 35°39' E 139°59'1 2.6
2018-Feb-23 21:57N 35°40' E 139°59'0 0.1
2018-Feb-23 21:30N 35°40' E 139°59'2 3.8
2018-Feb-23 20:54N 35°38' E 139°59'510.8
2018-Feb-23 20:24N 35°33' E 139°57'511.8
2018-Feb-23 20:00N 35°30' E 139°53'611.1
2018-Feb-23 19:30N 35°24' E 139°51'3 6.6
2018-Feb-23 18:59N 35°22' E 139°54'0 0.0
2018-Feb-23 18:29N 35°22' E 139°54'0 0.0
2018-Feb-23 17:53N 35°22' E 139°54'0 0.0
2018-Feb-23 17:19N 35°22' E 139°54'0 0.0
2018-Feb-23 17:00N 35°22' E 139°54'0 0.0
2018-Feb-23 16:23N 35°22' E 139°54'0 0.0
2018-Feb-23 16:00N 35°22' E 139°54'0 0.0
2018-Feb-23 15:30N 35°22' E 139°54'0 0.0
2018-Feb-23 15:00N 35°22' E 139°54'0 0.0
2018-Feb-23 14:28N 35°22' E 139°54'0 0.0
2018-Feb-23 13:56N 35°22' E 139°54'0 0.0
2018-Feb-23 13:29N 35°22' E 139°54'0 0.0
2018-Feb-23 13:00N 35°22' E 139°54'0 0.0
2018-Feb-23 12:30N 35°22' E 139°54'0 0.0
2018-Feb-23 11:54N 35°22' E 139°54'0 0.0
2018-Feb-23 11:26N 35°22' E 139°54'0 0.0
2018-Feb-23 10:57N 35°22' E 139°54'0 0.0
2018-Feb-23 10:30N 35°22' E 139°54'0 0.0
2018-Feb-23 10:00N 35°22' E 139°54'0 0.0
2018-Feb-23 09:30N 35°22' E 139°54'0 0.2
2018-Feb-23 09:01N 35°22' E 139°54'0 0.2
2018-Feb-23 08:29N 35°22' E 139°54'0 0.0
2018-Feb-23 08:00N 35°22' E 139°54'0 0.0
2018-Feb-23 07:29N 35°22' E 139°54'0 0.0
2018-Feb-23 06:58N 35°22' E 139°54'0 0.0
2018-Feb-23 06:29N 35°22' E 139°54'0 0.0
2018-Feb-23 05:59N 35°22' E 139°54'0 0.0
2018-Feb-23 05:30N 35°22' E 139°54'1 1.9
2018-Feb-23 05:00N 35°22' E 139°53'1 1.0
2018-Feb-23 04:30N 35°22' E 139°53'1 0.6
2018-Feb-23 03:40N 35°22' E 139°54'0 0.0
2018-Feb-23 03:31N 35°22' E 139°54'0 0.0
2018-Feb-23 03:00N 35°22' E 139°54'0 0.0
2018-Feb-23 02:30N 35°22' E 139°54'0 0.0
2018-Feb-23 02:00N 35°22' E 139°54'0 0.0
2018-Feb-23 01:28N 35°22' E 139°54'0 1.0
2018-Feb-23 01:00N 35°22' E 139°53'0 0.4
2018-Feb-23 00:30N 35°22' E 139°53'2 3.6
2018-Feb-23 00:00N 35°23' E 139°51'2 3.8
2018-Feb-22 23:30N 35°24' E 139°50'3 7.0
2018-Feb-22 23:01N 35°22' E 139°53'1 1.2
2018-Feb-22 22:30N 35°22' E 139°53'0 1.0
2018-Feb-22 22:00N 35°22' E 139°54'0 0.0
2018-Feb-22 21:26N 35°22' E 139°54'0 0.0
2018-Feb-22 21:01N 35°22' E 139°54'0 0.0
2018-Feb-22 20:30N 35°22' E 139°54'0 0.0
2018-Feb-22 20:00N 35°22' E 139°54'0 0.0
2018-Feb-22 19:30N 35°22' E 139°54'0 0.0
2018-Feb-22 18:59N 35°22' E 139°54'0 0.0
2018-Feb-22 18:30N 35°22' E 139°54'0 0.0
2018-Feb-22 18:00N 35°22' E 139°54'0 0.0
2018-Feb-22 17:29N 35°22' E 139°54'0 0.0
2018-Feb-22 17:00N 35°22' E 139°54'0 0.0
2018-Feb-22 16:27N 35°22' E 139°54'0 0.0
2018-Feb-22 16:00N 35°22' E 139°54'0 0.0
2018-Feb-22 15:30N 35°22' E 139°54'0 0.0
2018-Feb-22 15:00N 35°22' E 139°54'0 0.0
2018-Feb-22 14:28N 35°22' E 139°54'0 0.0
2018-Feb-22 14:00N 35°22' E 139°54'0 0.0
2018-Feb-22 13:30N 35°22' E 139°54'0 0.0
2018-Feb-22 13:00N 35°22' E 139°54'0 0.0
2018-Feb-22 12:31N 35°22' E 139°54'0 0.0
2018-Feb-22 11:59N 35°22' E 139°54'0 0.0
2018-Feb-22 11:30N 35°22' E 139°54'0 0.0
2018-Feb-22 10:59N 35°22' E 139°54'0 0.0
2018-Feb-22 10:30N 35°22' E 139°54'0 0.0
2018-Feb-22 10:00N 35°22' E 139°54'0 0.0
2018-Feb-22 09:29N 35°22' E 139°54'0 0.0
2018-Feb-22 09:00N 35°22' E 139°54'0 0.0
2018-Feb-22 08:30N 35°22' E 139°54'0 0.0
2018-Feb-22 08:00N 35°22' E 139°54'0 0.0
2018-Feb-22 07:29N 35°22' E 139°54'1 1.7
2018-Feb-22 07:00N 35°22' E 139°53'0 0.0
2018-Feb-22 06:30N 35°22' E 139°53'0 0.0
2018-Feb-22 06:00N 35°22' E 139°53'0 0.0
2018-Feb-22 05:31N 35°22' E 139°53'0 0.1
2018-Feb-22 05:01N 35°22' E 139°53'0 0.1
2018-Feb-22 04:30N 35°22' E 139°53'1 1.7
2018-Feb-22 04:01N 35°22' E 139°54'0 0.0
2018-Feb-22 03:30N 35°22' E 139°54'0 0.0
2018-Feb-22 03:00N 35°22' E 139°54'0 0.0
2018-Feb-22 02:30N 35°22' E 139°54'0 0.0
2018-Feb-22 02:00N 35°22' E 139°54'0 0.0
2018-Feb-22 01:30N 35°22' E 139°54'0 0.0
2018-Feb-22 01:00N 35°22' E 139°54'0 0.0
2018-Feb-22 00:29N 35°22' E 139°54'0 0.0
2018-Feb-22 00:01N 35°22' E 139°54'0 0.0
2018-Feb-21 23:30N 35°22' E 139°54'0 0.0
2018-Feb-21 23:00N 35°22' E 139°54'0 0.0
2018-Feb-21 22:30N 35°22' E 139°54'0 0.0
2018-Feb-21 22:00N 35°22' E 139°54'0 0.0
2018-Feb-21 21:31N 35°22' E 139°54'0 0.0
2018-Feb-21 21:00N 35°22' E 139°54'0 0.0
2018-Feb-21 20:30N 35°22' E 139°54'0 0.0
2018-Feb-21 20:00N 35°22' E 139°54'0 0.0
2018-Feb-21 19:30N 35°22' E 139°54'0 0.0
2018-Feb-21 18:58N 35°22' E 139°54'0 0.0
2018-Feb-21 18:31N 35°22' E 139°54'0 0.0
2018-Feb-21 18:00N 35°22' E 139°54'0 0.0
2018-Feb-21 17:31N 35°22' E 139°54'0 0.0
2018-Feb-21 17:00N 35°22' E 139°54'0 0.0
2018-Feb-21 16:29N 35°22' E 139°54'0 0.0
2018-Feb-21 16:00N 35°22' E 139°54'0 0.0
2018-Feb-21 15:30N 35°22' E 139°54'0 0.0
2018-Feb-21 15:00N 35°22' E 139°54'0 0.0
2018-Feb-21 14:29N 35°22' E 139°54'0 0.0
2018-Feb-21 14:01N 35°22' E 139°54'0 0.0
2018-Feb-21 13:31N 35°22' E 139°54'0 0.0
2018-Feb-21 13:00N 35°22' E 139°54'0 0.0
2018-Feb-21 12:29N 35°22' E 139°54'0 0.0
2018-Feb-21 12:01N 35°22' E 139°54'0 0.0
2018-Feb-21 11:30N 35°22' E 139°54'0 0.0
2018-Feb-21 11:00N 35°22' E 139°54'0 0.0
2018-Feb-21 10:30N 35°22' E 139°54'0 0.0
2018-Feb-21 10:00N 35°22' E 139°54'0 0.0
2018-Feb-21 09:30N 35°22' E 139°54'0 0.0
2018-Feb-21 09:00N 35°22' E 139°54'0 0.0
2018-Feb-21 08:31N 35°22' E 139°54'0 0.0
2018-Feb-21 08:01N 35°22' E 139°54'0 0.0
2018-Feb-21 07:30N 35°22' E 139°54'0 0.0
2018-Feb-21 07:00N 35°22' E 139°54'0 0.0
2018-Feb-21 06:30N 35°22' E 139°54'0 0.0
2018-Feb-21 06:00N 35°22' E 139°54'0 0.0
2018-Feb-21 05:30N 35°22' E 139°54'0 0.0
2018-Feb-21 04:57N 35°22' E 139°54'3 6.3
2018-Feb-21 04:30N 35°23' E 139°50'2 4.5
2018-Feb-21 04:00N 35°21' E 139°49'0 0.1
2018-Feb-21 03:30N 35°21' E 139°49'0 0.2
2018-Feb-21 03:00N 35°20' E 139°49'0 0.5
2018-Feb-21 02:30N 35°21' E 139°49'0 0.5
2018-Feb-21 02:00N 35°21' E 139°49'0 0.8
2018-Feb-21 01:30N 35°21' E 139°49'0 0.3
2018-Feb-21 01:00N 35°21' E 139°49'0 0.1
2018-Feb-21 00:30N 35°21' E 139°49'0 0.5
2018-Feb-21 00:00N 35°21' E 139°49'0 0.4
2018-Feb-20 23:30N 35°21' E 139°49'0 0.1
2018-Feb-20 23:01N 35°21' E 139°49'0 0.1
2018-Feb-20 22:30N 35°21' E 139°49'0 0.6
2018-Feb-20 22:01N 35°21' E 139°49'0 0.5
2018-Feb-20 21:30N 35°21' E 139°49'0 0.1
2018-Feb-20 21:01N 35°21' E 139°49'0 0.2
2018-Feb-20 20:30N 35°21' E 139°49'0 0.6
2018-Feb-20 20:00N 35°21' E 139°49'0 1.0
2018-Feb-20 19:30N 35°20' E 139°49'0 0.0
2018-Feb-20 19:00N 35°20' E 139°49'0 0.0
2018-Feb-20 18:30N 35°20' E 139°49'0 0.0
2018-Feb-20 18:01N 35°20' E 139°49'0 0.0
2018-Feb-20 17:30N 35°20' E 139°49'0 0.0
2018-Feb-20 17:01N 35°20' E 139°49'0 0.0
2018-Feb-20 16:31N 35°20' E 139°49'0 0.0
2018-Feb-20 16:00N 35°20' E 139°49'0 0.0
2018-Feb-20 15:30N 35°20' E 139°49'0 0.0
2018-Feb-20 15:00N 35°20' E 139°49'0 0.0
2018-Feb-20 14:30N 35°20' E 139°49'0 0.0
2018-Feb-20 14:00N 35°20' E 139°49'0 0.0
2018-Feb-20 13:30N 35°20' E 139°49'0 0.6
2018-Feb-20 13:01N 35°21' E 139°49'0 0.1
2018-Feb-20 12:30N 35°21' E 139°49'0 0.3
2018-Feb-20 12:00N 35°21' E 139°49'0 0.2
2018-Feb-20 11:30N 35°21' E 139°49'0 0.1
2018-Feb-20 11:00N 35°21' E 139°49'0 0.1
2018-Feb-20 10:30N 35°21' E 139°49'0 0.4
2018-Feb-20 10:01N 35°21' E 139°49'0 0.4
2018-Feb-20 09:30N 35°21' E 139°49'0 0.2
2018-Feb-20 09:00N 35°21' E 139°49'0 0.1
2018-Feb-20 08:31N 35°21' E 139°49'0 0.3
2018-Feb-20 08:00N 35°21' E 139°49'0 0.4
2018-Feb-20 07:30N 35°21' E 139°49'0 0.2
2018-Feb-20 07:01N 35°21' E 139°49'0 0.1
2018-Feb-20 06:31N 35°21' E 139°49'0 0.2
2018-Feb-20 06:00N 35°21' E 139°49'0 0.2
2018-Feb-20 05:30N 35°21' E 139°49'0 0.1
2018-Feb-20 05:01N 35°21' E 139°49'0 0.1
2018-Feb-20 04:30N 35°21' E 139°49'0 0.3
2018-Feb-20 04:00N 35°21' E 139°49'0 0.2
2018-Feb-20 03:31N 35°21' E 139°49'0 0.1
2018-Feb-20 03:00N 35°21' E 139°49'0 0.2
2018-Feb-20 02:30N 35°21' E 139°49'0 0.1
2018-Feb-20 02:00N 35°21' E 139°49'0 0.4
2018-Feb-20 01:30N 35°21' E 139°49'0 0.2
2018-Feb-20 01:00N 35°21' E 139°49'0 0.3
2018-Feb-20 00:30N 35°21' E 139°49'0 0.3
2018-Feb-20 00:00N 35°21' E 139°49'0 0.3
2018-Feb-19 23:30N 35°21' E 139°49'0 0.6
2018-Feb-19 23:01N 35°20' E 139°49'1 2.2
2018-Feb-19 22:31N 35°22' E 139°49'2 3.4
2018-Feb-19 22:00N 35°23' E 139°50'3 6.0
2018-Feb-19 21:30N 35°22' E 139°54'0 0.0
2018-Feb-19 20:59N 35°22' E 139°54'0 0.0
2018-Feb-19 20:29N 35°22' E 139°54'0 0.0
2018-Feb-19 20:01N 35°22' E 139°54'0 0.0
2018-Feb-19 19:30N 35°22' E 139°54'0 0.0
2018-Feb-19 19:01N 35°22' E 139°54'0 0.0
2018-Feb-19 18:30N 35°22' E 139°54'0 0.0
2018-Feb-19 18:00N 35°22' E 139°54'0 0.0
2018-Feb-19 17:30N 35°22' E 139°54'0 0.0
2018-Feb-19 17:01N 35°22' E 139°54'0 0.0
2018-Feb-19 16:31N 35°22' E 139°54'0 0.0
2018-Feb-19 16:00N 35°22' E 139°54'0 0.0
2018-Feb-19 15:30N 35°22' E 139°54'0 0.0
2018-Feb-19 15:00N 35°22' E 139°54'0 0.0
2018-Feb-19 14:30N 35°22' E 139°54'0 0.0
2018-Feb-19 14:00N 35°22' E 139°54'0 0.0
2018-Feb-19 13:31N 35°22' E 139°54'0 0.0
2018-Feb-19 13:00N 35°22' E 139°54'0 0.0
2018-Feb-19 12:30N 35°22' E 139°54'0 0.0
2018-Feb-19 12:00N 35°22' E 139°54'0 0.0
2018-Feb-19 11:31N 35°22' E 139°54'0 0.0
2018-Feb-19 11:00N 35°22' E 139°54'0 0.0
2018-Feb-19 10:31N 35°22' E 139°54'0 0.0
2018-Feb-19 10:01N 35°22' E 139°54'0 0.0
2018-Feb-19 09:31N 35°22' E 139°54'0 0.0
2018-Feb-19 09:00N 35°22' E 139°54'0 0.0
2018-Feb-19 08:31N 35°22' E 139°54'0 0.0
2018-Feb-19 08:00N 35°22' E 139°54'0 0.0
2018-Feb-19 07:30N 35°22' E 139°54'0 0.0
2018-Feb-19 06:57N 35°22' E 139°54'0 0.0
2018-Feb-19 06:30N 35°22' E 139°54'2 3.3
2018-Feb-19 06:00N 35°22' E 139°52'0 0.2
2018-Feb-19 05:31N 35°22' E 139°52'0 0.4
2018-Feb-19 05:00N 35°22' E 139°52'2 4.4
2018-Feb-19 04:29N 35°23' E 139°49'3 5.3
2018-Feb-19 04:00N 35°26' E 139°50'1 1.5
2018-Feb-19 03:30N 35°26' E 139°50'4 8.0
2018-Feb-19 03:00N 35°22' E 139°49'2 3.3
2018-Feb-19 02:30N 35°21' E 139°49'0 0.2
2018-Feb-19 02:01N 35°21' E 139°49'2 3.1
2018-Feb-19 01:30N 35°22' E 139°50'2 3.6
2018-Feb-19 01:01N 35°22' E 139°52'0 0.3
2018-Feb-19 00:30N 35°22' E 139°52'0 1.0
2018-Feb-19 00:00N 35°22' E 139°53'0 0.0
2018-Feb-18 23:30N 35°22' E 139°53'1 1.3
2018-Feb-18 23:00N 35°22' E 139°53'1 2.0
2018-Feb-18 22:30N 35°22' E 139°52'1 2.9
2018-Feb-18 22:00N 35°22' E 139°51'0 0.2
2018-Feb-18 21:30N 35°22' E 139°51'2 4.8
2018-Feb-18 21:00N 35°22' E 139°54'0 0.1
2018-Feb-18 20:31N 35°22' E 139°54'0 0.0
2018-Feb-18 20:00N 35°22' E 139°54'0 0.0
2018-Feb-18 19:30N 35°22' E 139°54'0 0.0
2018-Feb-18 18:58N 35°22' E 139°54'0 0.0
2018-Feb-18 18:30N 35°22' E 139°54'0 0.0
2018-Feb-18 18:00N 35°22' E 139°54'0 0.0
2018-Feb-18 17:30N 35°22' E 139°54'0 0.0
2018-Feb-18 17:00N 35°22' E 139°54'0 0.0
2018-Feb-18 16:28N 35°22' E 139°54'0 0.0
2018-Feb-18 16:00N 35°22' E 139°54'0 0.0
2018-Feb-18 15:30N 35°22' E 139°54'0 0.0
2018-Feb-18 15:00N 35°22' E 139°54'0 0.0
2018-Feb-18 14:30N 35°22' E 139°54'0 0.0
2018-Feb-18 14:01N 35°22' E 139°54'0 0.0
2018-Feb-18 13:30N 35°22' E 139°54'0 0.0
2018-Feb-18 13:00N 35°22' E 139°54'0 0.0
2018-Feb-18 12:28N 35°22' E 139°54'0 0.0
2018-Feb-18 11:53N 35°22' E 139°54'0 0.0
2018-Feb-18 11:30N 35°22' E 139°54'0 0.0
2018-Feb-18 11:00N 35°22' E 139°54'0 0.0
2018-Feb-18 10:30N 35°22' E 139°54'0 0.0
2018-Feb-18 09:58N 35°22' E 139°54'0 0.0
2018-Feb-18 09:24N 35°22' E 139°54'0 0.0
2018-Feb-18 08:59N 35°22' E 139°54'0 0.0
2018-Feb-18 08:30N 35°22' E 139°54'0 0.0
2018-Feb-18 07:59N 35°22' E 139°54'0 0.0
2018-Feb-18 07:31N 35°22' E 139°54'0 0.0
2018-Feb-18 06:58N 35°22' E 139°54'0 0.0
2018-Feb-18 06:31N 35°22' E 139°54'0 0.0
2018-Feb-18 05:58N 35°22' E 139°54'1 3.0
2018-Feb-18 05:30N 35°22' E 139°52'3 5.5
2018-Feb-18 05:01N 35°21' E 139°49'0 0.0
2018-Feb-18 04:30N 35°21' E 139°49'0 0.0
2018-Feb-18 04:01N 35°21' E 139°49'0 0.9
2018-Feb-18 03:30N 35°21' E 139°49'2 4.0
2018-Feb-18 03:00N 35°23' E 139°48'0 0.1
2018-Feb-18 02:30N 35°23' E 139°48'2 4.1
2018-Feb-18 02:00N 35°23' E 139°51'2 4.1
2018-Feb-18 01:24N 35°22' E 139°54'0 0.0
2018-Feb-18 00:58N 35°22' E 139°54'0 0.0
2018-Feb-18 00:30N 35°22' E 139°54'0 0.0
2018-Feb-17 23:59N 35°22' E 139°54'0 0.0
2018-Feb-17 23:30N 35°22' E 139°54'0 0.0
2018-Feb-17 23:00N 35°22' E 139°54'0 0.0
2018-Feb-17 22:30N 35°22' E 139°54'0 0.0
2018-Feb-17 22:01N 35°22' E 139°54'0 0.0
2018-Feb-17 21:30N 35°22' E 139°54'0 0.0
2018-Feb-17 21:00N 35°22' E 139°54'0 0.0
2018-Feb-17 20:30N 35°22' E 139°54'0 0.0
2018-Feb-17 19:59N 35°22' E 139°54'0 0.0
2018-Feb-17 19:30N 35°22' E 139°54'0 0.0
2018-Feb-17 19:00N 35°22' E 139°54'0 0.0
2018-Feb-17 18:31N 35°22' E 139°54'0 0.0
2018-Feb-17 18:01N 35°22' E 139°54'0 0.0
2018-Feb-17 17:30N 35°22' E 139°54'0 0.0
2018-Feb-17 17:00N 35°22' E 139°54'0 0.0
2018-Feb-17 16:30N 35°22' E 139°54'0 0.0
2018-Feb-17 16:00N 35°22' E 139°54'0 0.0
2018-Feb-17 15:31N 35°22' E 139°54'0 0.0
2018-Feb-17 14:59N 35°22' E 139°54'0 0.0
2018-Feb-17 14:30N 35°22' E 139°54'0 0.0
2018-Feb-17 14:01N 35°22' E 139°54'0 0.0
2018-Feb-17 13:28N 35°22' E 139°54'0 0.0
2018-Feb-17 13:00N 35°22' E 139°54'0 0.0
2018-Feb-17 12:28N 35°22' E 139°54'0 0.0
2018-Feb-17 12:00N 35°22' E 139°54'0 0.0
2018-Feb-17 11:30N 35°22' E 139°54'0 0.0
2018-Feb-17 11:00N 35°22' E 139°54'0 0.0
2018-Feb-17 10:31N 35°22' E 139°54'0 0.0
2018-Feb-17 10:00N 35°22' E 139°54'0 0.0
2018-Feb-17 09:30N 35°22' E 139°54'0 0.0
2018-Feb-17 08:56N 35°22' E 139°54'0 0.0
2018-Feb-17 08:30N 35°22' E 139°54'0 0.0
2018-Feb-17 08:01N 35°22' E 139°54'0 0.0
2018-Feb-17 07:30N 35°22' E 139°54'0 0.0
2018-Feb-17 06:59N 35°22' E 139°54'0 0.0
2018-Feb-17 06:30N 35°22' E 139°54'0 0.0
2018-Feb-17 06:00N 35°22' E 139°54'3 6.4
2018-Feb-17 05:30N 35°22' E 139°50'2 3.6
2018-Feb-17 05:01N 35°21' E 139°49'0 0.2
2018-Feb-17 04:30N 35°21' E 139°49'3 5.6
2018-Feb-17 04:00N 35°22' E 139°52'1 2.8
2018-Feb-17 03:30N 35°22' E 139°54'0 0.0
2018-Feb-17 02:59N 35°22' E 139°54'0 0.0
2018-Feb-17 02:30N 35°22' E 139°54'0 0.0
2018-Feb-17 02:00N 35°22' E 139°54'0 0.0
2018-Feb-17 01:30N 35°22' E 139°54'0 0.0
2018-Feb-17 01:00N 35°22' E 139°54'0 0.0
2018-Feb-17 00:27N 35°22' E 139°54'0 0.0
2018-Feb-17 00:01N 35°22' E 139°54'0 0.0
2018-Feb-16 23:30N 35°22' E 139°54'0 0.0
2018-Feb-16 23:00N 35°22' E 139°54'0 0.0
2018-Feb-16 22:28N 35°22' E 139°54'1 3.0
2018-Feb-16 22:01N 35°22' E 139°52'0 0.1
2018-Feb-16 21:30N 35°22' E 139°52'1 1.5
2018-Feb-16 21:01N 35°22' E 139°51'2 4.5
2018-Feb-16 20:30N 35°24' E 139°49'2 3.9
2018-Feb-16 20:00N 35°26' E 139°49'2 5.0
2018-Feb-16 19:30N 35°23' E 139°51'2 3.5
2018-Feb-16 19:00N 35°22' E 139°52'0 0.3
2018-Feb-16 18:30N 35°22' E 139°52'1 2.8
2018-Feb-16 18:01N 35°22' E 139°54'0 0.0
2018-Feb-16 17:30N 35°22' E 139°54'0 0.0
2018-Feb-16 17:00N 35°22' E 139°54'0 0.0
2018-Feb-16 16:30N 35°22' E 139°54'0 0.0
2018-Feb-16 16:00N 35°22' E 139°54'0 0.0
2018-Feb-16 15:30N 35°22' E 139°54'0 0.0
2018-Feb-16 15:00N 35°22' E 139°54'0 0.0
2018-Feb-16 14:31N 35°22' E 139°54'0 0.0
2018-Feb-16 14:00N 35°22' E 139°54'0 0.0
2018-Feb-16 13:30N 35°22' E 139°54'0 0.0
2018-Feb-16 13:01N 35°22' E 139°54'0 0.0
2018-Feb-16 12:30N 35°22' E 139°54'0 0.0
2018-Feb-16 12:01N 35°22' E 139°54'0 0.0
2018-Feb-16 11:30N 35°22' E 139°54'0 0.0
2018-Feb-16 10:59N 35°22' E 139°54'0 0.0
2018-Feb-16 10:30N 35°22' E 139°54'0 0.0
2018-Feb-16 10:00N 35°22' E 139°54'0 0.0
2018-Feb-16 09:30N 35°22' E 139°54'0 0.0
2018-Feb-16 09:00N 35°22' E 139°54'0 0.0
2018-Feb-16 08:30N 35°22' E 139°54'3 5.5
2018-Feb-16 08:00N 35°23' E 139°51'1 2.8
2018-Feb-16 07:30N 35°21' E 139°51'2 3.0
2018-Feb-16 07:00N 35°22' E 139°50'0 0.5
2018-Feb-16 06:30N 35°22' E 139°50'1 1.8
2018-Feb-16 06:00N 35°22' E 139°49'1 1.8
2018-Feb-16 05:30N 35°21' E 139°49'0 0.0
2018-Feb-16 04:59N 35°21' E 139°49'0 0.2
2018-Feb-16 04:31N 35°21' E 139°49'1 2.1
2018-Feb-16 04:01N 35°22' E 139°49'2 4.1
2018-Feb-16 03:31N 35°23' E 139°47'1 2.6
2018-Feb-16 03:01N 35°22' E 139°46'4 7.7
2018-Feb-16 02:31N 35°23' E 139°50'3 5.5
2018-Feb-16 02:00N 35°22' E 139°54'0 0.0
2018-Feb-16 01:29N 35°22' E 139°54'0 0.0
2018-Feb-16 01:00N 35°22' E 139°54'0 0.0
2018-Feb-16 00:29N 35°22' E 139°54'0 0.0
2018-Feb-16 00:00N 35°22' E 139°54'0 0.0
2018-Feb-15 23:30N 35°22' E 139°54'0 0.0
2018-Feb-15 23:00N 35°22' E 139°54'0 0.0
2018-Feb-15 22:25N 35°22' E 139°54'1 1.9
2018-Feb-15 22:00N 35°22' E 139°53'1 1.0
2018-Feb-15 21:30N 35°22' E 139°53'3 6.1
2018-Feb-15 21:01N 35°23' E 139°50'1 1.8
2018-Feb-15 20:31N 35°24' E 139°50'3 7.0
2018-Feb-15 20:01N 35°22' E 139°54'0 0.4
2018-Feb-15 19:30N 35°22' E 139°54'0 0.0
2018-Feb-15 19:00N 35°22' E 139°54'0 0.0
2018-Feb-15 18:30N 35°22' E 139°54'0 0.0
2018-Feb-15 18:00N 35°22' E 139°54'0 0.0
2018-Feb-15 17:31N 35°22' E 139°54'0 0.0
2018-Feb-15 17:00N 35°22' E 139°54'0 0.0
2018-Feb-15 16:30N 35°22' E 139°54'0 0.0
2018-Feb-15 16:00N 35°22' E 139°54'0 0.0
2018-Feb-15 15:30N 35°22' E 139°54'0 0.0
2018-Feb-15 14:57N 35°22' E 139°54'0 0.0
2018-Feb-15 14:30N 35°22' E 139°54'0 0.0
2018-Feb-15 13:58N 35°22' E 139°54'0 0.0
2018-Feb-15 13:30N 35°22' E 139°54'0 0.0
2018-Feb-15 13:00N 35°22' E 139°54'0 0.0
2018-Feb-15 12:31N 35°22' E 139°54'0 0.0
2018-Feb-15 12:00N 35°22' E 139°54'0 0.0
2018-Feb-15 11:29N 35°22' E 139°54'0 0.0
2018-Feb-15 11:01N 35°22' E 139°54'0 0.0
2018-Feb-15 10:30N 35°22' E 139°54'0 0.0
2018-Feb-15 10:00N 35°22' E 139°54'0 0.0
2018-Feb-15 09:31N 35°22' E 139°54'0 0.0
2018-Feb-15 09:00N 35°22' E 139°54'0 0.0
2018-Feb-15 08:30N 35°22' E 139°54'0 0.0
2018-Feb-15 08:00N 35°22' E 139°54'0 0.0
2018-Feb-15 07:30N 35°22' E 139°54'1 1.7
2018-Feb-15 07:01N 35°22' E 139°53'2 3.6
2018-Feb-15 06:31N 35°22' E 139°51'0 0.9
2018-Feb-15 06:00N 35°22' E 139°50'3 5.4
2018-Feb-15 05:31N 35°22' E 139°47'2 4.4
2018-Feb-15 05:00N 35°23' E 139°50'2 3.1
2018-Feb-15 04:30N 35°22' E 139°52'1 2.1
2018-Feb-15 04:00N 35°22' E 139°51'1 2.6
2018-Feb-15 03:30N 35°22' E 139°53'0 0.0
2018-Feb-15 03:00N 35°22' E 139°53'0 0.1
2018-Feb-15 02:30N 35°22' E 139°53'0 0.1
2018-Feb-15 02:00N 35°22' E 139°53'0 0.1
2018-Feb-15 01:30N 35°22' E 139°53'0 0.9
2018-Feb-15 01:00N 35°22' E 139°52'0 0.2
2018-Feb-15 00:30N 35°22' E 139°52'1 1.8
2018-Feb-15 00:00N 35°22' E 139°53'0 0.8
2018-Feb-14 23:30N 35°22' E 139°54'0 0.0
2018-Feb-14 22:58N 35°22' E 139°54'0 0.0
2018-Feb-14 22:28N 35°22' E 139°54'0 0.0
2018-Feb-14 22:00N 35°22' E 139°54'0 0.0
2018-Feb-14 21:30N 35°22' E 139°54'0 0.0
2018-Feb-14 21:00N 35°22' E 139°54'0 0.0
2018-Feb-14 20:27N 35°22' E 139°54'0 0.0
2018-Feb-14 20:01N 35°22' E 139°54'0 0.0
2018-Feb-14 19:30N 35°22' E 139°54'0 0.0
2018-Feb-14 19:00N 35°22' E 139°54'0 0.0
2018-Feb-14 18:30N 35°22' E 139°54'0 0.0
2018-Feb-14 18:00N 35°22' E 139°54'0 0.0
2018-Feb-14 17:31N 35°22' E 139°54'0 0.0
2018-Feb-14 17:00N 35°22' E 139°54'0 0.0
2018-Feb-14 16:28N 35°22' E 139°54'0 0.0
2018-Feb-14 16:00N 35°22' E 139°54'  

Dump ship's entire track history